Etusivu
METAR-TAF:

METAR-TAF

Lentoasemat :

Matam, Senegal

Leveyspiiri: 15-39N, Pituuspiiri: 013-15W, korkeus merenpinnasta: 15 m

Tämänhetkinen sää

Tämä raportti tehtiin 2 tuntia ja 25 minuuttia sitten, kello 03.00 UTC
Tuuli 6 kn pohjoisesta
Lämpötila 34°C
Kosteus 32%
Ilmanpaine 1010 hPa
Näkyvyys 10 km tai enemmän
ei pilviä alle 1500 m:ssä eikä cumulonimbus-pilviä

METAR: GOSM 030300Z 36006KT CAVOK 34/15 Q1010

Aika: 05:25 (05:25 UTC)


TAF: puuttuu

Säähavainnot ja -ennusteet yli 4000 lentoasemalta (METAR- ja TAF-raportit).

Käytössä olevat sääasemat on merkitty karttaan keltaisilla ja punaisilla pisteillä.

Aseta hiiri pisteen päälle nähdäksesi sääaseman nimen.

Klikkaa sitten nähdäksesi säähavainnot ja -ennusteet.

Kartan vaihtaminen: klikkaa mustalla rastilla varustettuja vihreitä pisteitä, niin voit zoomata sisään; viivalla varustettua vihreää pistettä, niin voit zoomata ulos tai vihreitä nuolia, niin pääset viereisille kartoille.


METAR-TAF: